Time;durP1;ratioP1;P1;durP2;ratioP2;P2;SDS_P1;SDS_P2;PMS_P1;PMS_P2;Temp;Humidity;BMP_temperature;BMP_pressure;BME280_temperature;BME280_humidity;BME280_pressure;Samples;Min_cycle;Max_cycle;Signal;HPM_P1;HPM_P2
2022/01/01 00:00:20;;;;;;;279.92;210.73;;;;;;;;;;5153020;27;20046;-62
2022/01/01 00:02:46;;;;;;;183.68;135.68;;;;;;;;;;5108768;27;20456;-63
2022/01/01 00:05:13;;;;;;;176.63;129.82;;;;;;;;;;5131302;27;20049;-63
2022/01/01 00:07:39;;;;;;;205.48;146.40;;;;;;;;;;5128200;27;20050;-63
2022/01/01 00:10:07;;;;;;;187.45;134.82;;;;;;;;;;5138590;27;20077;-62
2022/01/01 00:12:33;;;;;;;172.90;133.52;;;;;;;;;;5117440;27;20046;-62
2022/01/01 00:14:59;;;;;;;184.23;130.30;;;;;;;;;;5113350;27;20049;-62
2022/01/01 00:17:25;;;;;;;191.10;146.95;;;;;;;;;;5118431;27;20393;-62
2022/01/01 00:19:51;;;;;;;161.15;115.05;;;;;;;;;;5140517;27;20074;-63
2022/01/01 00:22:17;;;;;;;166.70;123.13;;;;;;;;;;5124813;27;20125;-63
2022/01/01 00:24:44;;;;;;;171.65;119.90;;;;;;;;;;5139119;27;20053;-64
2022/01/01 00:27:10;;;;;;;197.77;141.02;;;;;;;;;;5137332;27;20111;-63
2022/01/01 00:29:37;;;;;;;184.05;126.10;;;;;;;;;;5102255;27;20041;-63
2022/01/01 00:32:03;;;;;;;210.88;163.25;;;;;;;;;;5101992;27;20039;-63
2022/01/01 00:34:29;;;;;;;180.80;128.68;;;;;;;;;;5128573;27;20038;-63
2022/01/01 00:36:55;;;;;;;153.32;99.57;;;;;;;;;;5142519;27;20042;-63
2022/01/01 00:39:21;;;;;;;159.38;102.30;;;;;;;;;;5144112;27;20058;-63
2022/01/01 00:41:47;;;;;;;171.02;109.28;;;;;;;;;;5122027;27;20047;-63
2022/01/01 00:44:13;;;;;;;156.10;103.63;;;;;;;;;;5138749;27;20059;-63
2022/01/01 00:46:40;;;;;;;156.60;101.03;;;;;;;;;;5126385;27;20046;-64
2022/01/01 00:49:06;;;;;;;178.07;120.70;;;;;;;;;;5118766;27;20508;-63
2022/01/01 00:51:32;;;;;;;140.23;88.85;;;;;;;;;;5111542;27;20396;-63
2022/01/01 00:53:58;;;;;;;122.88;72.60;;;;;;;;;;5123873;27;20400;-63
2022/01/01 00:56:26;;;;;;;130.77;79.65;;;;;;;;;;5140248;27;20046;-62
2022/01/01 00:58:52;;;;;;;126.35;77.70;;;;;;;;;;5142049;27;20031;-62
2022/01/01 01:01:18;;;;;;;125.72;76.90;;;;;;;;;;5101878;27;20039;-63
2022/01/01 01:03:45;;;;;;;130.70;79.47;;;;;;;;;;5126276;27;20100;-63
2022/01/01 01:06:13;;;;;;;113.72;65.93;;;;;;;;;;5138371;27;20034;-64
2022/01/01 01:08:41;;;;;;;107.90;67.03;;;;;;;;;;5103257;27;20043;-63
2022/01/01 01:11:07;;;;;;;125.70;73.53;;;;;;;;;;5100112;27;20131;-63
2022/01/01 01:13:34;;;;;;;101.05;57.45;;;;;;;;;;5100211;27;20035;-63
2022/01/01 01:16:00;;;;;;;136.38;80.03;;;;;;;;;;5116335;27;20037;-64
2022/01/01 01:18:27;;;;;;;92.95;52.22;;;;;;;;;;5121135;27;20304;-63
2022/01/01 01:20:53;;;;;;;97.78;57.95;;;;;;;;;;5119182;27;20034;-63
2022/01/01 01:23:19;;;;;;;99.80;53.60;;;;;;;;;;5122296;27;20047;-63
2022/01/01 01:25:45;;;;;;;119.18;67.85;;;;;;;;;;5118545;27;20072;-63
2022/01/01 01:28:14;;;;;;;91.25;48.47;;;;;;;;;;5124806;27;20122;-63
2022/01/01 01:30:40;;;;;;;97.68;49.13;;;;;;;;;;5092722;27;20035;-63
2022/01/01 01:33:06;;;;;;;90.30;47.17;;;;;;;;;;5119846;27;20090;-63
2022/01/01 01:35:33;;;;;;;95.00;46.85;;;;;;;;;;5117914;27;20050;-63
2022/01/01 01:37:59;;;;;;;98.55;50.75;;;;;;;;;;5144427;27;20126;-62
2022/01/01 01:40:26;;;;;;;92.15;47.35;;;;;;;;;;5136373;27;20077;-63
2022/01/01 01:42:52;;;;;;;101.63;51.83;;;;;;;;;;5134401;27;20424;-63
2022/01/01 01:45:21;;;;;;;103.15;53.60;;;;;;;;;;5116457;27;20064;-64
2022/01/01 01:47:48;;;;;;;96.57;48.70;;;;;;;;;;5118674;27;20042;-63
2022/01/01 01:50:15;;;;;;;95.18;47.25;;;;;;;;;;5121282;27;20094;-63
2022/01/01 01:52:44;;;;;;;114.43;63.17;;;;;;;;;;5103866;27;20054;-63
2022/01/01 01:55:11;;;;;;;157.95;100.63;;;;;;;;;;5102689;27;20070;-63
2022/01/01 01:57:39;;;;;;;97.63;48.75;;;;;;;;;;5101786;27;20042;-63
2022/01/01 02:00:10;;;;;;;108.53;50.45;;;;;;;;;;5094447;27;20043;-63
2022/01/01 02:02:36;;;;;;;91.57;43.45;;;;;;;;;;5117076;27;20043;-63
2022/01/01 02:05:02;;;;;;;215.63;146.40;;;;;;;;;;5136324;27;20050;-63
2022/01/01 02:07:28;;;;;;;119.35;61.75;;;;;;;;;;5100804;27;20043;-63
2022/01/01 02:09:54;;;;;;;130.52;68.35;;;;;;;;;;5124465;27;20043;-62
2022/01/01 02:12:22;;;;;;;90.32;44.15;;;;;;;;;;5137162;27;20070;-63
2022/01/01 02:17:17;;;;;;;143.82;80.85;;;;;;;;;;5138103;27;20043;-63
2022/01/01 02:20:01;;;;;;;148.25;73.03;;;;;;;;;;5134590;27;20043;-63
2022/01/01 02:22:36;;;;;;;102.88;44.83;;;;;;;;;;5124581;27;20053;-62
2022/01/01 02:25:03;;;;;;;131.90;60.08;;;;;;;;;;5133717;27;22035;-63
2022/01/01 02:27:29;;;;;;;102.47;47.28;;;;;;;;;;5113945;27;20042;-63
2022/01/01 02:29:55;;;;;;;122.15;55.13;;;;;;;;;;5115775;27;20039;-63
2022/01/01 02:32:21;;;;;;;149.05;83.03;;;;;;;;;;5100497;27;20066;-63
2022/01/01 02:34:47;;;;;;;108.47;44.95;;;;;;;;;;5130992;27;20043;-63
2022/01/01 02:37:13;;;;;;;118.18;47.40;;;;;;;;;;5137489;27;20057;-63
2022/01/01 02:39:39;;;;;;;112.22;49.47;;;;;;;;;;5121956;27;20042;-63
2022/01/01 02:42:08;;;;;;;102.63;39.42;;;;;;;;;;5139833;27;20098;-63
2022/01/01 02:44:34;;;;;;;89.85;38.42;;;;;;;;;;5138089;27;20497;-63
2022/01/01 02:47:01;;;;;;;216.05;125.53;;;;;;;;;;5122259;27;20390;-63
2022/01/01 02:49:27;;;;;;;115.15;51.10;;;;;;;;;;5098531;27;20110;-63
2022/01/01 02:51:53;;;;;;;154.48;75.80;;;;;;;;;;5120323;27;20483;-64
2022/01/01 02:54:19;;;;;;;99.15;41.38;;;;;;;;;;5134367;27;20038;-62
2022/01/01 02:56:45;;;;;;;124.28;49.35;;;;;;;;;;5138516;27;20082;-63
2022/01/01 02:59:11;;;;;;;110.68;45.40;;;;;;;;;;5115691;27;20126;-63
2022/01/01 03:01:37;;;;;;;112.32;46.67;;;;;;;;;;5116888;27;20536;-63
2022/01/01 03:04:04;;;;;;;109.95;48.95;;;;;;;;;;5120096;27;20039;-62
2022/01/01 03:06:30;;;;;;;122.00;54.13;;;;;;;;;;5127075;27;20039;-61
2022/01/01 03:08:56;;;;;;;126.35;52.92;;;;;;;;;;5142334;27;20031;-61
2022/01/01 03:11:23;;;;;;;126.40;53.55;;;;;;;;;;5124043;27;20121;-61
2022/01/01 03:13:49;;;;;;;130.98;55.63;;;;;;;;;;5124620;27;20058;-61
2022/01/01 03:16:15;;;;;;;128.43;54.28;;;;;;;;;;5120871;27;21676;-62
2022/01/01 03:18:41;;;;;;;136.82;59.42;;;;;;;;;;5135191;27;20046;-61
2022/01/01 03:21:08;;;;;;;136.60;56.63;;;;;;;;;;5126678;27;20399;-61
2022/01/01 03:23:34;;;;;;;136.18;58.70;;;;;;;;;;5123065;27;20035;-62
2022/01/01 03:26:00;;;;;;;137.00;58.05;;;;;;;;;;5144903;27;20399;-62
2022/01/01 03:28:27;;;;;;;120.72;54.63;;;;;;;;;;5142289;27;20031;-61
2022/01/01 03:30:53;;;;;;;146.93;61.40;;;;;;;;;;5142051;27;20088;-61
2022/01/01 03:33:19;;;;;;;131.60;57.28;;;;;;;;;;5115230;27;21384;-62
2022/01/01 03:35:48;;;;;;;132.73;55.15;;;;;;;;;;5125805;27;20540;-62
2022/01/01 03:38:14;;;;;;;120.70;52.47;;;;;;;;;;5143582;27;20073;-62
2022/01/01 03:40:40;;;;;;;126.20;54.92;;;;;;;;;;5121630;27;20082;-62
2022/01/01 03:43:06;;;;;;;129.75;59.28;;;;;;;;;;5140209;27;20122;-62
2022/01/01 03:45:32;;;;;;;118.50;50.50;;;;;;;;;;5145726;27;20047;-61
2022/01/01 03:47:58;;;;;;;114.00;47.88;;;;;;;;;;5138239;27;20099;-61
2022/01/01 03:50:25;;;;;;;115.60;43.00;;;;;;;;;;5105924;27;20039;-62
2022/01/01 03:52:51;;;;;;;100.13;40.50;;;;;;;;;;5125588;27;20035;-62
2022/01/01 03:55:17;;;;;;;98.43;40.28;;;;;;;;;;5121034;27;20039;-61
2022/01/01 03:57:43;;;;;;;158.18;88.93;;;;;;;;;;5138094;27;20058;-63
2022/01/01 04:00:13;;;;;;;105.53;46.95;;;;;;;;;;5141443;27;20488;-62
2022/01/01 04:02:39;;;;;;;98.05;40.05;;;;;;;;;;5139716;27;20035;-62
2022/01/01 04:05:05;;;;;;;98.47;38.00;;;;;;;;;;5117613;27;20047;-62
2022/01/01 04:07:32;;;;;;;97.43;40.08;;;;;;;;;;5117899;27;20038;-61
2022/01/01 04:09:58;;;;;;;97.13;39.35;;;;;;;;;;5122229;27;20039;-62
2022/01/01 04:12:25;;;;;;;117.93;43.42;;;;;;;;;;5122117;27;20502;-61
2022/01/01 04:14:51;;;;;;;106.55;42.38;;;;;;;;;;5125104;27;20047;-61
2022/01/01 04:17:17;;;;;;;99.28;40.20;;;;;;;;;;5142311;27;20477;-62
2022/01/01 04:19:43;;;;;;;107.93;40.63;;;;;;;;;;5140469;27;20412;-62
2022/01/01 04:22:10;;;;;;;103.22;39.78;;;;;;;;;;5123469;27;20050;-62
2022/01/01 04:24:36;;;;;;;102.68;40.97;;;;;;;;;;5118269;27;20047;-62
2022/01/01 04:27:03;;;;;;;97.75;40.67;;;;;;;;;;5141373;27;20030;-62
2022/01/01 04:29:29;;;;;;;120.47;44.33;;;;;;;;;;5115319;27;20517;-61
2022/01/01 04:31:56;;;;;;;108.28;45.15;;;;;;;;;;5123018;27;20455;-61
2022/01/01 04:34:22;;;;;;;104.60;42.15;;;;;;;;;;5146069;27;20047;-61
2022/01/01 04:36:56;;;;;;;96.50;39.47;;;;;;;;;;5126131;27;20381;-61
2022/01/01 04:39:22;;;;;;;92.00;36.60;;;;;;;;;;5123557;27;20054;-61
2022/01/01 04:41:48;;;;;;;103.07;39.72;;;;;;;;;;5147380;27;20083;-62
2022/01/01 04:44:14;;;;;;;101.38;41.78;;;;;;;;;;5122254;27;20512;-62
2022/01/01 04:46:40;;;;;;;104.75;43.60;;;;;;;;;;5116759;27;20038;-61
2022/01/01 04:49:06;;;;;;;118.30;44.65;;;;;;;;;;5120685;27;20039;-61
2022/01/01 04:51:33;;;;;;;106.72;43.42;;;;;;;;;;5123158;27;20116;-61
2022/01/01 04:54:01;;;;;;;118.20;47.92;;;;;;;;;;5100907;27;20054;-61
2022/01/01 04:56:29;;;;;;;113.45;44.30;;;;;;;;;;5118644;27;20408;-62
2022/01/01 04:58:55;;;;;;;110.15;42.53;;;;;;;;;;5125531;27;20051;-61
2022/01/01 05:01:21;;;;;;;106.00;41.30;;;;;;;;;;5143658;27;20114;-61
2022/01/01 05:03:48;;;;;;;90.55;37.38;;;;;;;;;;5137217;27;20537;-62
2022/01/01 05:06:14;;;;;;;108.88;40.75;;;;;;;;;;5101287;27;20164;-62
2022/01/01 05:08:40;;;;;;;103.85;39.65;;;;;;;;;;5120099;27;20049;-61
2022/01/01 05:11:06;;;;;;;99.97;39.72;;;;;;;;;;5138845;27;20049;-62
2022/01/01 05:13:32;;;;;;;103.40;39.63;;;;;;;;;;5099580;27;20047;-62
2022/01/01 05:15:58;;;;;;;102.65;38.83;;;;;;;;;;5136438;27;20043;-61
2022/01/01 05:18:24;;;;;;;104.65;39.97;;;;;;;;;;5120751;27;20451;-62
2022/01/01 05:20:51;;;;;;;103.30;38.90;;;;;;;;;;5100860;27;20045;-61
2022/01/01 05:23:17;;;;;;;108.47;41.80;;;;;;;;;;5119498;27;20039;-62
2022/01/01 05:25:43;;;;;;;99.30;39.67;;;;;;;;;;5120409;27;20121;-62
2022/01/01 05:28:09;;;;;;;112.68;44.97;;;;;;;;;;5116736;27;20137;-61
2022/01/01 05:30:35;;;;;;;104.20;44.30;;;;;;;;;;5138413;27;20125;-62
2022/01/01 05:33:02;;;;;;;104.20;42.42;;;;;;;;;;5120651;27;20129;-62
2022/01/01 05:35:28;;;;;;;113.93;47.60;;;;;;;;;;5119393;27;20670;-62
2022/01/01 05:37:54;;;;;;;112.38;47.67;;;;;;;;;;5126046;27;20117;-62
2022/01/01 05:40:20;;;;;;;98.35;41.47;;;;;;;;;;5117538;27;20042;-62
2022/01/01 05:42:47;;;;;;;118.85;50.00;;;;;;;;;;5115220;27;20096;-62
2022/01/01 05:45:13;;;;;;;103.85;47.47;;;;;;;;;;5120401;27;20127;-61
2022/01/01 05:47:39;;;;;;;99.90;47.05;;;;;;;;;;5121595;27;20078;-62
2022/01/01 05:50:05;;;;;;;116.72;50.58;;;;;;;;;;5104990;27;20358;-62
2022/01/01 05:52:31;;;;;;;112.07;49.92;;;;;;;;;;5139285;27;20047;-62
2022/01/01 05:54:57;;;;;;;120.18;52.83;;;;;;;;;;5101347;27;20034;-61
2022/01/01 05:57:23;;;;;;;117.43;53.78;;;;;;;;;;5120414;27;20032;-61
2022/01/01 05:59:50;;;;;;;112.57;52.88;;;;;;;;;;5136299;27;20081;-63
2022/01/01 06:02:16;;;;;;;115.15;55.20;;;;;;;;;;5122133;27;20047;-62
2022/01/01 06:04:42;;;;;;;119.25;57.95;;;;;;;;;;5100629;27;20054;-64
2022/01/01 06:07:08;;;;;;;132.55;62.40;;;;;;;;;;5125733;27;20035;-63
2022/01/01 06:09:34;;;;;;;128.75;62.20;;;;;;;;;;5118918;27;20066;-63
2022/01/01 06:12:00;;;;;;;131.02;62.90;;;;;;;;;;5122424;27;20396;-64
2022/01/01 06:14:27;;;;;;;135.85;67.90;;;;;;;;;;5114641;27;20039;-62
2022/01/01 06:16:53;;;;;;;134.40;71.60;;;;;;;;;;5117859;27;20578;-62
2022/01/01 06:19:19;;;;;;;130.52;65.35;;;;;;;;;;5142027;27;20187;-62
2022/01/01 06:21:45;;;;;;;144.55;73.50;;;;;;;;;;5118150;27;20031;-62
2022/01/01 06:24:11;;;;;;;142.43;67.93;;;;;;;;;;5116294;27;20066;-62
2022/01/01 06:26:37;;;;;;;154.02;78.35;;;;;;;;;;5136222;27;20031;-63
2022/01/01 06:29:04;;;;;;;151.63;76.47;;;;;;;;;;5100254;27;20043;-64
2022/01/01 06:31:30;;;;;;;150.55;74.07;;;;;;;;;;5096998;27;20035;-62
2022/01/01 06:33:56;;;;;;;139.40;70.22;;;;;;;;;;5117534;27;20091;-62
2022/01/01 06:36:22;;;;;;;132.63;67.75;;;;;;;;;;5098327;27;20160;-62
2022/01/01 06:38:48;;;;;;;142.25;69.72;;;;;;;;;;5116259;27;20043;-62
2022/01/01 06:41:16;;;;;;;136.77;67.25;;;;;;;;;;5137951;27;20034;-62
2022/01/01 06:43:42;;;;;;;124.55;64.05;;;;;;;;;;5142465;27;20054;-62
2022/01/01 06:46:08;;;;;;;125.30;59.58;;;;;;;;;;5119906;27;20039;-62
2022/01/01 06:48:35;;;;;;;129.13;63.45;;;;;;;;;;5122443;27;20519;-63
2022/01/01 06:51:01;;;;;;;131.52;60.13;;;;;;;;;;5098527;27;20053;-62
2022/01/01 06:53:27;;;;;;;132.02;59.97;;;;;;;;;;5121317;27;20042;-62
2022/01/01 06:55:53;;;;;;;134.73;59.40;;;;;;;;;;5136529;27;20227;-62
2022/01/01 06:58:19;;;;;;;123.28;54.72;;;;;;;;;;5123545;27;20476;-62
2022/01/01 07:00:45;;;;;;;126.78;53.08;;;;;;;;;;5118773;27;20041;-62
2022/01/01 07:03:11;;;;;;;123.85;51.38;;;;;;;;;;5105069;27;20386;-62
2022/01/01 07:05:37;;;;;;;136.32;53.10;;;;;;;;;;5140857;27;20031;-62
2022/01/01 07:08:04;;;;;;;140.43;51.97;;;;;;;;;;5124866;27;20026;-62
2022/01/01 07:10:30;;;;;;;148.05;52.72;;;;;;;;;;5117834;27;20039;-62
2022/01/01 07:12:56;;;;;;;157.35;56.47;;;;;;;;;;5115770;27;20078;-62
2022/01/01 07:15:22;;;;;;;157.00;56.92;;;;;;;;;;5138634;27;20117;-62
2022/01/01 07:17:48;;;;;;;142.63;52.50;;;;;;;;;;5114554;27;20054;-63
2022/01/01 07:20:14;;;;;;;140.30;48.78;;;;;;;;;;5114328;27;20091;-62
2022/01/01 07:22:44;;;;;;;120.97;45.00;;;;;;;;;;5122027;27;20062;-62
2022/01/01 07:25:11;;;;;;;131.20;49.50;;;;;;;;;;5134038;27;20428;-62
2022/01/01 07:27:38;;;;;;;136.50;47.35;;;;;;;;;;5113070;27;20066;-62
2022/01/01 07:30:05;;;;;;;135.48;49.38;;;;;;;;;;5118139;27;20046;-63
2022/01/01 07:32:31;;;;;;;151.50;51.05;;;;;;;;;;5138477;27;20066;-63
2022/01/01 07:34:57;;;;;;;141.50;48.78;;;;;;;;;;5113839;27;20035;-62
2022/01/01 07:37:23;;;;;;;133.43;47.45;;;;;;;;;;5116213;27;20497;-62
2022/01/01 07:39:49;;;;;;;144.40;52.33;;;;;;;;;;5116268;27;20504;-62
2022/01/01 07:42:15;;;;;;;124.63;46.35;;;;;;;;;;5119008;27;20460;-61
2022/01/01 07:44:41;;;;;;;143.23;48.50;;;;;;;;;;5116959;27;20106;-62
2022/01/01 07:47:08;;;;;;;140.20;46.15;;;;;;;;;;5122692;27;20058;-61
2022/01/01 07:49:34;;;;;;;137.90;44.97;;;;;;;;;;5143931;27;20038;-62
2022/01/01 07:52:00;;;;;;;132.30;43.45;;;;;;;;;;5107377;27;20047;-62
2022/01/01 07:54:26;;;;;;;116.20;40.13;;;;;;;;;;5110011;27;20062;-62
2022/01/01 07:56:52;;;;;;;121.00;39.97;;;;;;;;;;5141740;27;20078;-63
2022/01/01 07:59:19;;;;;;;107.25;39.40;;;;;;;;;;5116584;27;20038;-62
2022/01/01 08:01:45;;;;;;;111.43;39.20;;;;;;;;;;5144005;27;20512;-63
2022/01/01 08:04:11;;;;;;;104.70;37.53;;;;;;;;;;5099821;27;20042;-61
2022/01/01 08:06:37;;;;;;;98.68;36.30;;;;;;;;;;5102361;27;20046;-61
2022/01/01 08:09:04;;;;;;;94.53;34.45;;;;;;;;;;5136462;27;20043;-61
2022/01/01 08:11:30;;;;;;;101.57;35.58;;;;;;;;;;5146473;27;20042;-62
2022/01/01 08:13:56;;;;;;;106.43;36.85;;;;;;;;;;5123019;27;20045;-62
2022/01/01 08:16:22;;;;;;;99.22;36.35;;;;;;;;;;5124659;27;20126;-61
2022/01/01 08:18:49;;;;;;;98.00;36.13;;;;;;;;;;5105200;27;20050;-61
2022/01/01 08:21:15;;;;;;;103.40;37.63;;;;;;;;;;5131041;27;20122;-61
2022/01/01 08:23:41;;;;;;;104.63;39.00;;;;;;;;;;5124632;27;20122;-62
2022/01/01 08:26:07;;;;;;;109.50;40.15;;;;;;;;;;5122239;27;20048;-62
2022/01/01 08:28:33;;;;;;;114.50;40.42;;;;;;;;;;5122721;27;20049;-63
2022/01/01 08:34:09;;;;;;;124.47;43.90;;;;;;;;;;5142196;27;20034;-61
2022/01/01 08:36:35;;;;;;;129.68;45.75;;;;;;;;;;5133492;27;20127;-61
2022/01/01 08:39:01;;;;;;;115.95;44.35;;;;;;;;;;5147122;27;20403;-61
2022/01/01 08:41:27;;;;;;;128.65;44.78;;;;;;;;;;5125208;27;20039;-61
2022/01/01 08:43:54;;;;;;;116.38;43.42;;;;;;;;;;5144554;27;20137;-62
2022/01/01 08:46:20;;;;;;;135.70;45.15;;;;;;;;;;5129624;27;20043;-61
2022/01/01 08:48:46;;;;;;;126.30;45.70;;;;;;;;;;5147476;27;20144;-61
2022/01/01 08:51:22;;;;;;;110.53;44.45;;;;;;;;;;5117267;27;20039;-62
2022/01/01 08:53:49;;;;;;;121.03;44.80;;;;;;;;;;5142394;27;20472;-62
2022/01/01 08:56:15;;;;;;;131.45;47.60;;;;;;;;;;5106722;27;20487;-62
2022/01/01 08:58:41;;;;;;;115.35;45.83;;;;;;;;;;5140237;27;20095;-62
2022/01/01 09:01:08;;;;;;;126.18;46.60;;;;;;;;;;5123359;27;20635;-62
2022/01/01 09:03:35;;;;;;;137.57;47.17;;;;;;;;;;5119766;27;20164;-63
2022/01/01 09:06:02;;;;;;;118.90;43.72;;;;;;;;;;5080311;27;20048;-64
2022/01/01 09:08:29;;;;;;;113.70;43.85;;;;;;;;;;5111182;28;20048;-63
2022/01/01 09:10:55;;;;;;;144.75;46.50;;;;;;;;;;5093066;28;20054;-63
2022/01/01 09:13:21;;;;;;;142.93;48.72;;;;;;;;;;5093212;28;20051;-63
2022/01/01 09:15:48;;;;;;;121.93;45.05;;;;;;;;;;5076759;28;20417;-63
2022/01/01 09:18:14;;;;;;;114.65;43.33;;;;;;;;;;5093212;28;20047;-63
2022/01/01 09:20:40;;;;;;;129.50;47.20;;;;;;;;;;5092629;28;20075;-63
2022/01/01 09:23:06;;;;;;;131.48;46.95;;;;;;;;;;5092999;28;20048;-63
2022/01/01 09:25:33;;;;;;;132.23;48.42;;;;;;;;;;5076680;28;20043;-64
2022/01/01 09:27:59;;;;;;;114.47;45.58;;;;;;;;;;5093282;28;20122;-63
2022/01/01 09:30:25;;;;;;;118.55;45.40;;;;;;;;;;5078836;28;20100;-64
2022/01/01 09:32:52;;;;;;;115.13;44.95;;;;;;;;;;5072196;28;20075;-63
2022/01/01 09:35:18;;;;;;;123.57;46.95;;;;;;;;;;5090379;28;20123;-63
2022/01/01 09:37:44;;;;;;;95.35;41.67;;;;;;;;;;5090671;28;20051;-63
2022/01/01 09:40:11;;;;;;;122.15;48.60;;;;;;;;;;5090266;28;20502;-63
2022/01/01 09:42:39;;;;;;;104.53;45.78;;;;;;;;;;5090302;28;20083;-63
2022/01/01 09:45:09;;;;;;;105.60;45.53;;;;;;;;;;5088852;28;20051;-63
2022/01/01 09:47:36;;;;;;;106.20;45.50;;;;;;;;;;5071965;28;20431;-63
2022/01/01 09:50:04;;;;;;;120.38;48.65;;;;;;;;;;5055392;28;20032;-63
2022/01/01 09:52:31;;;;;;;105.60;47.63;;;;;;;;;;5072137;28;20119;-63
2022/01/01 09:54:57;;;;;;;91.75;43.58;;;;;;;;;;5071884;28;20050;-63
2022/01/01 09:57:23;;;;;;;95.25;46.13;;;;;;;;;;5072287;28;20071;-63
2022/01/01 09:59:49;;;;;;;93.95;47.20;;;;;;;;;;5089926;28;20553;-63
2022/01/01 10:02:15;;;;;;;91.28;45.45;;;;;;;;;;5090342;28;20040;-63
2022/01/01 10:04:42;;;;;;;84.75;41.25;;;;;;;;;;5071535;28;20043;-63
2022/01/01 10:07:09;;;;;;;79.38;41.53;;;;;;;;;;5090125;28;20047;-63
2022/01/01 10:09:36;;;;;;;89.35;43.45;;;;;;;;;;5072029;28;20403;-63
2022/01/01 10:12:06;;;;;;;83.13;41.42;;;;;;;;;;5055012;28;20076;-63
2022/01/01 10:14:35;;;;;;;78.47;41.05;;;;;;;;;;5088197;28;20559;-63
2022/01/01 10:17:03;;;;;;;72.65;37.90;;;;;;;;;;5071416;28;20047;-62
2022/01/01 10:19:30;;;;;;;81.40;41.20;;;;;;;;;;5089767;28;20040;-63
2022/01/01 10:21:57;;;;;;;71.75;38.50;;;;;;;;;;5071263;28;20040;-63
2022/01/01 10:24:40;;;;;;;68.07;39.05;;;;;;;;;;5088323;28;20397;-62
2022/01/01 10:30:01;;;;;;;;;;;;;;;;;;5088734;28;20055;-63
2022/01/01 10:32:27;;;;;;;68.97;35.65;;;;;;;;;;5088273;28;19923;-62
2022/01/01 10:34:53;;;;;;;62.30;34.55;;;;;;;;;;5054651;28;20516;-62
2022/01/01 10:37:24;;;;;;;66.50;39.83;;;;;;;;;;5071590;28;20047;-62
2022/01/01 10:39:52;;;;;;;59.92;36.80;;;;;;;;;;5089273;28;20040;-62
2022/01/01 10:42:18;;;;;;;60.42;33.15;;;;;;;;;;5054524;28;20051;-62
2022/01/01 10:44:51;;;;;;;55.67;33.33;;;;;;;;;;5089323;28;20036;-62
2022/01/01 10:47:27;;;;;;;53.40;31.60;;;;;;;;;;5071170;28;20040;-62
2022/01/01 10:52:42;;;;;;;52.83;32.00;;;;;;;;;;5089701;28;20052;-62
2022/01/01 10:55:09;;;;;;;52.15;29.25;;;;;;;;;;5089266;28;20044;-62
2022/01/01 10:57:36;;;;;;;55.92;30.65;;;;;;;;;;5071380;28;20432;-62
2022/01/01 11:00:09;;;;;;;53.20;31.67;;;;;;;;;;5089093;28;20044;-62
2022/01/01 11:02:35;;;;;;;48.57;30.13;;;;;;;;;;5054702;28;20529;-62
2022/01/01 11:05:03;;;;;;;57.28;31.98;;;;;;;;;;5070678;28;20060;-62
2022/01/01 11:07:29;;;;;;;53.08;30.98;;;;;;;;;;5088021;28;20133;-62
2022/01/01 11:09:57;;;;;;;47.92;27.45;;;;;;;;;;5088946;28;20044;-62
2022/01/01 11:12:24;;;;;;;55.67;30.35;;;;;;;;;;5089377;28;20096;-62
2022/01/01 11:14:50;;;;;;;49.35;30.13;;;;;;;;;;5071127;28;20130;-62
2022/01/01 11:17:16;;;;;;;46.85;29.17;;;;;;;;;;5089303;28;20040;-62
2022/01/01 11:19:43;;;;;;;49.35;28.95;;;;;;;;;;5071236;28;20090;-62
2022/01/01 11:22:09;;;;;;;50.65;29.45;;;;;;;;;;5070850;28;20097;-62
2022/01/01 11:24:38;;;;;;;53.78;28.73;;;;;;;;;;5070977;28;20512;-62
2022/01/01 11:27:05;;;;;;;43.58;27.17;;;;;;;;;;5057717;28;20115;-62
2022/01/01 11:29:31;;;;;;;46.55;27.42;;;;;;;;;;5093398;28;20032;-62
2022/01/01 11:31:58;;;;;;;45.20;26.35;;;;;;;;;;5074232;28;20044;-62
2022/01/01 11:34:24;;;;;;;46.47;27.50;;;;;;;;;;5092843;28;20044;-62
2022/01/01 11:36:51;;;;;;;44.80;24.98;;;;;;;;;;5092923;28;20047;-62
2022/01/01 11:39:22;;;;;;;47.80;26.27;;;;;;;;;;5074721;28;20076;-62
2022/01/01 11:41:48;;;;;;;39.60;25.05;;;;;;;;;;5091273;28;20059;-61
2022/01/01 11:44:26;;;;;;;43.60;24.38;;;;;;;;;;5074551;28;20050;-62
2022/01/01 11:46:59;;;;;;;40.65;23.45;;;;;;;;;;5074233;28;20044;-62
2022/01/01 11:49:27;;;;;;;45.55;24.02;;;;;;;;;;5074690;28;20462;-62
2022/01/01 11:51:53;;;;;;;39.03;22.42;;;;;;;;;;5091274;28;20044;-62
2022/01/01 11:54:19;;;;;;;39.95;21.77;;;;;;;;;;5074247;28;20494;-62
2022/01/01 11:56:52;;;;;;;39.17;20.90;;;;;;;;;;5057507;28;20051;-62
2022/01/01 11:59:26;;;;;;;41.47;20.95;;;;;;;;;;5091108;28;20048;-62
2022/01/01 12:01:54;;;;;;;37.58;19.88;;;;;;;;;;5090783;28;20597;-61
2022/01/01 12:04:31;;;;;;;33.22;18.50;;;;;;;;;;5077510;28;20079;-62
2022/01/01 12:07:12;;;;;;;34.53;18.70;;;;;;;;;;5096889;28;20050;-62
2022/01/01 12:09:47;;;;;;;30.55;17.83;;;;;;;;;;5061556;28;20044;-62
2022/01/01 12:12:14;;;;;;;29.35;17.25;;;;;;;;;;5083595;28;20035;-61
2022/01/01 12:14:41;;;;;;;30.95;16.95;;;;;;;;;;5082181;28;20075;-62
2022/01/01 12:17:07;;;;;;;28.95;17.77;;;;;;;;;;5079530;28;20123;-62
2022/01/01 12:19:37;;;;;;;29.67;16.17;;;;;;;;;;5081335;28;20043;-62
2022/01/01 12:22:04;;;;;;;29.60;15.98;;;;;;;;;;5099345;28;20053;-62
2022/01/01 12:24:34;;;;;;;28.98;15.52;;;;;;;;;;5081384;28;20039;-61
2022/01/01 12:27:01;;;;;;;25.92;13.70;;;;;;;;;;5081331;28;20067;-62
2022/01/01 12:29:27;;;;;;;23.85;14.18;;;;;;;;;;5080625;28;20059;-62
2022/01/01 12:31:57;;;;;;;26.13;13.18;;;;;;;;;;5079993;28;20044;-62
2022/01/01 12:34:24;;;;;;;23.95;12.38;;;;;;;;;;5082946;28;20058;-62
2022/01/01 12:36:52;;;;;;;20.20;10.80;;;;;;;;;;5094505;28;20119;-63
2022/01/01 12:39:18;;;;;;;18.65;10.52;;;;;;;;;;5080880;28;20043;-62
2022/01/01 12:41:45;;;;;;;20.38;10.15;;;;;;;;;;5065095;28;20777;-64
2022/01/01 12:44:11;;;;;;;24.92;9.95;;;;;;;;;;5095760;28;20044;-62
2022/01/01 12:46:47;;;;;;;21.98;10.48;;;;;;;;;;5083053;28;20036;-62
2022/01/01 12:49:14;;;;;;;18.25;9.10;;;;;;;;;;5083256;28;20047;-62
2022/01/01 12:51:40;;;;;;;17.38;7.97;;;;;;;;;;5057927;28;20118;-62
2022/01/01 12:54:08;;;;;;;18.88;8.25;;;;;;;;;;5077673;28;20047;-62
2022/01/01 12:56:35;;;;;;;20.25;8.68;;;;;;;;;;5079297;28;20040;-63
2022/01/01 12:59:08;;;;;;;15.35;7.75;;;;;;;;;;5084981;28;20039;-62
2022/01/01 13:01:35;;;;;;;16.00;7.80;;;;;;;;;;5078798;28;20048;-62
2022/01/01 13:04:06;;;;;;;19.38;7.45;;;;;;;;;;5077886;27;20048;-63
2022/01/01 13:06:32;;;;;;;18.60;7.93;;;;;;;;;;5103623;27;20052;-62
2022/01/01 13:09:02;;;;;;;18.60;7.90;;;;;;;;;;5077840;27;20047;-62
2022/01/01 13:11:28;;;;;;;17.02;7.57;;;;;;;;;;5090683;28;20051;-61
2022/01/01 13:13:54;;;;;;;20.55;8.25;;;;;;;;;;5063065;28;20059;-63
2022/01/01 13:16:21;;;;;;;17.05;7.07;;;;;;;;;;5080627;28;20505;-62
2022/01/01 13:18:47;;;;;;;15.43;6.65;;;;;;;;;;5082024;28;20036;-62
2022/01/01 13:21:13;;;;;;;22.30;8.27;;;;;;;;;;5078972;28;20074;-62
2022/01/01 13:23:39;;;;;;;14.85;6.63;;;;;;;;;;5076735;28;20569;-63
2022/01/01 13:26:06;;;;;;;12.50;5.88;;;;;;;;;;5081334;28;20080;-62
2022/01/01 13:28:33;;;;;;;13.90;6.30;;;;;;;;;;5079389;28;20097;-62
2022/01/01 13:31:01;;;;;;;13.25;6.43;;;;;;;;;;5078221;28;20570;-63
2022/01/01 13:33:27;;;;;;;15.32;6.45;;;;;;;;;;5076798;28;20040;-62
2022/01/01 13:35:55;;;;;;;17.25;7.68;;;;;;;;;;5079460;28;20036;-62
2022/01/01 13:38:21;;;;;;;17.23;6.78;;;;;;;;;;5094230;28;20059;-63
2022/01/01 13:40:48;;;;;;;16.17;6.40;;;;;;;;;;5077606;28;20362;-63
2022/01/01 13:43:15;;;;;;;15.07;6.47;;;;;;;;;;5099159;28;20131;-64
2022/01/01 13:45:41;;;;;;;17.55;6.63;;;;;;;;;;5097202;28;20054;-62
2022/01/01 13:48:07;;;;;;;16.02;6.10;;;;;;;;;;5057824;28;20131;-63
2022/01/01 13:50:40;;;;;;;15.48;6.35;;;;;;;;;;5076364;28;20089;-62
2022/01/01 13:53:08;;;;;;;14.20;7.63;;;;;;;;;;5091388;28;20096;-62
2022/01/01 13:55:34;;;;;;;17.15;8.45;;;;;;;;;;5080403;28;20047;-62
2022/01/01 13:58:04;;;;;;;19.08;8.85;;;;;;;;;;5077058;28;20481;-62
2022/01/01 14:00:33;;;;;;;15.50;7.65;;;;;;;;;;5081129;28;20435;-62
2022/01/01 14:03:02;;;;;;;17.20;7.80;;;;;;;;;;5086885;28;20079;-62
2022/01/01 14:05:28;;;;;;;16.10;7.32;;;;;;;;;;5060877;28;20139;-63
2022/01/01 14:08:11;;;;;;;15.20;6.93;;;;;;;;;;5070996;28;20126;-62
2022/01/01 14:10:37;;;;;;;15.37;6.47;;;;;;;;;;5079878;28;20114;-62
2022/01/01 14:13:03;;;;;;;13.80;6.20;;;;;;;;;;5073772;28;20062;-62
2022/01/01 14:15:29;;;;;;;14.25;6.15;;;;;;;;;;5087322;28;20079;-62
2022/01/01 14:17:57;;;;;;;16.27;6.60;;;;;;;;;;5096216;28;20040;-62
2022/01/01 14:20:28;;;;;;;13.45;6.30;;;;;;;;;;5083785;28;20035;-62